Time;durP1;ratioP1;P1;durP2;ratioP2;P2;SDS_P1;SDS_P2;PMS_P1;PMS_P2;Temp;Humidity;BMP_temperature;BMP_pressure;BME280_temperature;BME280_humidity;BME280_pressure;Samples;Min_cycle;Max_cycle;Signal;HPM_P1;HPM_P2
2021/10/30 09:02:34;;;;;;;12.50;6.47;;;;;;;7.61;84.80;98200.53;5105993;28;20641;-77
2021/10/30 09:05:10;;;;;;;11.27;6.40;;;;;;;8.27;83.18;98228.94;5088626;28;39039;-77
2021/10/30 09:07:38;;;;;;;10.67;5.43;;;;;;;8.71;80.44;98212.94;5105799;28;40720;-77
2021/10/30 09:10:11;;;;;;;13.33;6.40;;;;;;;9.08;77.48;98208.72;5105640;28;42961;-76
2021/10/30 09:12:39;;;;;;;10.87;5.83;;;;;;;9.38;75.43;98192.59;5106720;28;43032;-76
2021/10/30 09:15:09;;;;;;;8.27;5.77;;;;;;;9.60;74.09;98198.09;5104447;28;41045;-78
2021/10/30 09:17:37;;;;;;;10.97;6.20;;;;;;;9.72;72.79;98204.31;5093178;28;41844;-78
2021/10/30 09:20:08;;;;;;;11.93;6.33;;;;;;;9.81;71.99;98198.38;5106426;27;43595;-78
2021/10/30 09:22:36;;;;;;;14.47;6.67;;;;;;;9.90;72.15;98199.53;5105869;28;43137;-77
2021/10/30 09:25:06;;;;;;;11.70;6.53;;;;;;;10.05;71.33;98198.47;5105186;28;40000;-78
2021/10/30 09:27:48;;;;;;;10.60;6.00;;;;;;;10.21;70.46;98196.47;5106275;28;41115;-78
2021/10/30 09:30:18;;;;;;;10.20;5.90;;;;;;;10.69;69.41;98201.81;5087933;28;41436;-78
2021/10/30 09:32:55;;;;;;;10.60;6.23;;;;;;;11.11;68.20;98222.47;5088103;28;41308;-78
2021/10/30 09:35:28;;;;;;;8.90;5.17;;;;;;;11.35;67.14;98225.09;5104812;28;40001;-77
2021/10/30 09:37:56;;;;;;;11.20;6.17;;;;;;;11.43;65.67;98232.44;5088912;28;40548;-77
2021/10/30 09:40:26;;;;;;;7.57;5.23;;;;;;;11.57;65.70;98224.28;5087499;28;41776;-78
2021/10/30 09:43:09;;;;;;;10.70;5.90;;;;;;;11.65;65.08;98229.00;5105838;28;42140;-77
2021/10/30 09:45:39;;;;;;;8.13;5.47;;;;;;;11.63;65.42;98222.97;5075636;28;39104;-78
2021/10/30 09:48:10;;;;;;;7.93;4.70;;;;;;;11.60;65.25;98224.06;5105021;28;41565;-79
2021/10/30 09:50:37;;;;;;;7.73;5.10;;;;;;;11.58;65.02;98194.16;5088071;28;42999;-78
2021/10/30 09:53:43;;;;;;;9.27;5.57;;;;;;;11.56;64.96;98201.38;5105004;28;41979;-79
2021/10/30 09:56:12;;;;;;;9.77;5.30;;;;;;;11.62;64.68;98195.59;5081022;28;39049;-79
2021/10/30 09:58:41;;;;;;;9.27;5.23;;;;;;;11.73;64.97;98190.31;5105024;28;41869;-78
2021/10/30 10:01:11;;;;;;;12.30;6.63;;;;;;;11.75;63.21;98193.72;5070564;28;43698;-79
2021/10/30 10:03:41;;;;;;;8.77;5.73;;;;;;;11.84;64.15;98193.03;5104475;28;42925;-79
2021/10/30 10:06:11;;;;;;;12.23;6.13;;;;;;;11.88;63.57;98194.44;5103562;28;39670;-78
2021/10/30 10:08:40;;;;;;;9.03;5.67;;;;;;;11.86;63.65;98198.22;5087961;28;40665;-78
2021/10/30 10:11:10;;;;;;;10.37;5.60;;;;;;;11.82;63.33;98192.28;5087821;28;43046;-79
2021/10/30 10:13:39;;;;;;;10.17;6.03;;;;;;;11.78;63.08;98188.19;5091429;28;41047;-79
2021/10/30 10:16:11;;;;;;;8.60;5.60;;;;;;;11.80;63.45;98178.28;5091680;28;39898;-78
2021/10/30 10:18:41;;;;;;;9.87;6.17;;;;;;;11.53;62.55;98140.63;5074654;28;40753;-77
2021/10/30 10:21:12;;;;;;;9.43;5.53;;;;;;;11.97;62.66;98179.63;5057314;28;42195;-79
2021/10/30 10:23:41;;;;;;;9.27;5.83;;;;;;;12.06;61.93;98154.16;5082463;28;41998;-77
2021/10/30 10:26:10;;;;;;;9.83;5.80;;;;;;;12.11;62.34;98165.28;5090824;28;40158;-77
2021/10/30 10:28:38;;;;;;;10.03;6.23;;;;;;;12.00;61.85;98157.28;5074435;28;41746;-78
2021/10/30 10:31:13;;;;;;;9.03;5.63;;;;;;;12.13;62.74;98144.72;5073124;28;41685;-79
2021/10/30 10:33:43;;;;;;;11.67;5.30;;;;;;;12.10;62.51;98153.81;5073542;28;42562;-79
2021/10/30 10:36:21;;;;;;;10.77;5.90;;;;;;;12.11;62.58;98149.34;5073471;28;40077;-77
2021/10/30 10:39:09;;;;;;;8.27;5.57;;;;;;;12.11;61.89;98149.34;5089570;28;41727;-79
2021/10/30 10:41:56;;;;;;;8.77;5.73;;;;;;;12.13;62.39;98158.00;5090557;28;43219;-78
2021/10/30 10:44:57;;;;;;;7.97;4.97;;;;;;;12.18;62.20;98177.06;5069515;28;42312;-79
2021/10/30 10:48:00;;;;;;;9.27;5.43;;;;;;;12.15;62.16;98187.94;5058315;28;39958;-77
2021/10/30 10:50:44;;;;;;;8.57;5.07;;;;;;;12.12;61.52;98189.00;5089985;28;42692;-79
2021/10/30 10:53:25;;;;;;;7.07;5.17;;;;;;;12.06;61.41;98180.72;5090644;28;43706;-78
2021/10/30 10:56:23;;;;;;;8.73;4.67;;;;;;;12.03;61.59;98172.97;5073683;28;40831;-78
2021/10/30 10:59:11;;;;;;;9.20;5.33;;;;;;;12.06;61.86;98184.22;5073242;28;39180;-79
2021/10/30 11:02:20;;;;;;;6.90;4.83;;;;;;;12.15;61.40;98174.66;5089803;28;41785;-78
2021/10/30 11:05:24;;;;;;;8.27;5.23;;;;;;;12.18;61.36;98171.78;5072948;28;41790;-79
2021/10/30 11:08:26;;;;;;;8.07;5.03;;;;;;;12.32;60.99;98166.19;5089693;28;42174;-79
2021/10/30 11:11:10;;;;;;;9.83;5.47;;;;;;;12.46;61.86;98155.31;5089689;28;40131;-79
2021/10/30 11:13:45;;;;;;;8.70;5.63;;;;;;;12.60;61.08;98156.84;5088292;28;42688;-79
2021/10/30 11:16:13;;;;;;;8.33;5.17;;;;;;;12.65;60.68;98151.97;5089649;28;43674;-78
2021/10/30 11:18:57;;;;;;;10.30;5.43;;;;;;;12.68;61.06;98153.53;5088907;28;41374;-78
2021/10/30 11:21:34;;;;;;;9.13;5.40;;;;;;;12.56;60.60;98134.16;5057561;28;38966;-78
2021/10/30 11:24:19;;;;;;;6.67;4.30;;;;;;;12.67;61.27;98149.19;5070974;28;41691;-79
2021/10/30 11:26:55;;;;;;;8.33;5.73;;;;;;;12.51;60.87;98115.06;5071612;28;41914;-78
2021/10/30 11:29:23;;;;;;;7.83;5.30;;;;;;;12.71;60.39;98142.69;5090236;28;43062;-79
2021/10/30 11:31:55;;;;;;;10.53;6.07;;;;;;;12.50;59.80;98108.09;5089475;28;41330;-81
2021/10/30 11:34:23;;;;;;;10.03;4.97;;;;;;;12.71;59.81;98153.31;5089581;28;42694;-78
2021/10/30 11:36:55;;;;;;;9.40;6.10;;;;;;;12.74;59.90;98153.88;5072353;28;42060;-77
2021/10/30 11:39:26;;;;;;;9.17;5.73;;;;;;;12.66;60.41;98143.03;5090420;28;42871;-78
2021/10/30 11:41:54;;;;;;;10.37;6.37;;;;;;;12.61;60.14;98121.31;5084938;28;39867;-80
2021/10/30 11:44:23;;;;;;;8.53;4.97;;;;;;;12.70;60.50;98130.38;5089211;28;43151;-79
2021/10/30 11:46:54;;;;;;;7.10;4.43;;;;;;;12.63;60.62;98123.84;5087958;28;42782;-79
2021/10/30 11:49:26;;;;;;;10.30;5.53;;;;;;;12.73;60.37;98140.75;5088722;28;42340;-79
2021/10/30 11:52:03;;;;;;;8.77;5.70;;;;;;;12.74;60.25;98137.09;5072659;28;40093;-79
2021/10/30 11:54:32;;;;;;;8.77;5.27;;;;;;;12.70;60.73;98138.34;5090348;28;41822;-78
2021/10/30 11:57:01;;;;;;;9.53;5.20;;;;;;;12.64;60.82;98128.19;5088275;28;43052;-80
2021/10/30 11:59:29;;;;;;;7.00;5.57;;;;;;;12.46;60.71;98107.50;5071750;28;41226;-77
2021/10/30 12:01:56;;;;;;;6.67;4.93;;;;;;;12.41;61.16;98104.38;5071540;28;39098;-78
2021/10/30 12:04:26;;;;;;;7.93;5.37;;;;;;;12.39;60.82;98140.81;5072167;28;40350;-78
2021/10/30 12:06:56;;;;;;;10.10;6.63;;;;;;;12.27;61.25;98128.56;5071511;28;42743;-80
2021/10/30 12:09:27;;;;;;;7.97;5.37;;;;;;;12.20;61.54;98133.53;5088070;28;42197;-78
2021/10/30 12:11:58;;;;;;;7.67;4.90;;;;;;;12.13;62.07;98140.28;5071462;28;38863;-79
2021/10/30 12:14:28;;;;;;;8.47;5.30;;;;;;;12.08;62.16;98133.66;5088356;28;41924;-77
2021/10/30 12:16:57;;;;;;;9.13;5.70;;;;;;;12.02;62.88;98119.06;5088545;28;42623;-77
2021/10/30 12:19:27;;;;;;;8.53;5.80;;;;;;;11.95;62.60;98117.88;5070881;28;41605;-77
2021/10/30 12:22:08;;;;;;;9.47;5.80;;;;;;;11.92;62.74;98133.19;5071825;28;40337;-77
2021/10/30 12:24:39;;;;;;;8.20;5.73;;;;;;;11.78;62.99;98110.41;5087788;28;41660;-79
2021/10/30 12:27:09;;;;;;;7.30;4.53;;;;;;;11.68;63.58;98102.31;5071819;28;42968;-77
2021/10/30 12:29:42;;;;;;;10.00;4.93;;;;;;;11.51;64.48;98092.16;5089081;28;41036;-79
2021/10/30 12:32:11;;;;;;;8.30;5.43;;;;;;;11.35;65.58;98111.09;5088492;28;39709;-78
2021/10/30 12:34:40;;;;;;;8.53;5.90;;;;;;;11.23;65.83;98119.16;5088126;28;42246;-77
2021/10/30 12:37:09;;;;;;;9.87;6.67;;;;;;;11.13;66.93;98124.28;5054346;28;41727;-78
2021/10/30 12:39:38;;;;;;;10.53;6.60;;;;;;;11.01;67.08;98120.78;5088125;28;41624;-77
2021/10/30 12:42:09;;;;;;;9.23;5.30;;;;;;;10.99;67.34;98116.56;5089261;28;40108;-76
2021/10/30 12:44:39;;;;;;;7.63;5.10;;;;;;;10.97;68.16;98118.50;5088012;28;41801;-76
2021/10/30 12:47:12;;;;;;;7.80;5.57;;;;;;;10.87;68.53;98118.34;5088059;28;41699;-79
2021/10/30 12:49:43;;;;;;;11.17;6.23;;;;;;;10.78;68.69;98103.97;5088108;28;43469;-79
2021/10/30 12:52:13;;;;;;;9.57;5.80;;;;;;;10.76;69.31;98099.75;5087729;28;40467;-76
2021/10/30 12:54:51;;;;;;;7.83;4.77;;;;;;;10.74;69.67;98101.69;5070726;28;41053;-76
2021/10/30 12:57:25;;;;;;;7.77;5.53;;;;;;;10.76;69.80;98131.53;5073946;28;42782;-78
2021/10/30 13:00:01;;;;;;;10.77;6.63;;;;;;;10.76;70.20;98152.72;5088220;28;43188;-77
2021/10/30 13:02:29;;;;;;;8.60;6.00;;;;;;;10.77;70.12;98159.69;5071166;28;38917;-77
2021/10/30 13:04:57;;;;;;;13.40;5.93;;;;;;;10.77;70.60;98155.25;5071608;28;40888;-77
2021/10/30 13:07:26;;;;;;;13.40;7.07;;;;;;;10.74;70.51;98154.66;5070819;28;42531;-78
2021/10/30 13:09:57;;;;;;;8.93;5.57;;;;;;;10.72;70.62;98151.28;5089415;28;43008;-78
2021/10/30 13:12:27;;;;;;;8.60;5.73;;;;;;;10.67;70.84;98153.41;5088345;28;40179;-78
2021/10/30 13:14:55;;;;;;;11.17;6.40;;;;;;;10.68;71.04;98153.28;5070400;28;40897;-78
2021/10/30 13:17:23;;;;;;;11.50;5.60;;;;;;;10.68;71.56;98150.63;5079511;28;43625;-78
2021/10/30 13:19:50;;;;;;;10.77;5.57;;;;;;;10.68;71.27;98149.78;5070825;28;41038;-78
2021/10/30 13:22:18;;;;;;;9.70;5.77;;;;;;;10.71;71.49;98144.28;5087575;28;42149;-77
2021/10/30 13:24:45;;;;;;;7.97;5.07;;;;;;;10.76;71.24;98137.66;5071308;28;41600;-77
2021/10/30 13:27:13;;;;;;;7.17;5.23;;;;;;;10.82;71.56;98124.94;5087513;28;41454;-78
2021/10/30 13:29:42;;;;;;;9.70;5.87;;;;;;;10.88;71.91;98129.78;5087467;28;41997;-78
2021/10/30 13:32:11;;;;;;;7.87;5.37;;;;;;;10.92;71.75;98136.53;5086662;28;40666;-78
2021/10/30 13:34:39;;;;;;;8.03;5.17;;;;;;;10.94;71.55;98124.84;5087147;28;41527;-77
2021/10/30 13:37:07;;;;;;;10.43;6.87;;;;;;;10.96;71.44;98117.66;5070360;28;43035;-77
2021/10/30 13:39:35;;;;;;;7.33;5.07;;;;;;;11.01;71.85;98125.22;5087453;28;42382;-78
2021/10/30 13:42:05;;;;;;;10.03;7.07;;;;;;;10.89;71.92;98089.91;5087981;28;40145;-77
2021/10/30 13:44:32;;;;;;;9.80;6.50;;;;;;;11.00;72.29;98089.13;5070580;28;40649;-78
2021/10/30 13:47:02;;;;;;;12.33;6.90;;;;;;;10.94;72.58;98061.28;5088246;28;42518;-77
2021/10/30 13:49:30;;;;;;;12.03;6.33;;;;;;;11.05;72.66;98076.34;5090265;28;42873;-77
2021/10/30 13:51:58;;;;;;;10.03;5.53;;;;;;;11.08;72.81;98090.22;5090658;28;38959;-77
2021/10/30 13:54:25;;;;;;;10.37;6.47;;;;;;;11.13;72.46;98103.94;5073453;28;40940;-77
2021/10/30 13:56:54;;;;;;;10.23;6.07;;;;;;;11.15;72.51;98106.47;5073328;28;41973;-77
2021/10/30 13:59:22;;;;;;;9.53;6.17;;;;;;;11.07;71.81;98138.88;5073855;28;41733;-77
2021/10/30 14:01:49;;;;;;;11.17;6.97;;;;;;;10.96;72.32;98175.94;5090324;28;40410;-78
2021/10/30 14:04:19;;;;;;;10.13;6.50;;;;;;;10.94;72.64;98171.69;5091507;28;42442;-78
2021/10/30 14:06:47;;;;;;;11.03;6.43;;;;;;;10.93;72.45;98170.84;5093602;28;41703;-78
2021/10/30 14:09:14;;;;;;;9.07;5.73;;;;;;;10.95;72.72;98174.22;5092738;28;42479;-77
2021/10/30 14:11:42;;;;;;;9.13;5.53;;;;;;;10.93;72.64;98170.84;5084459;28;38998;-77
2021/10/30 14:14:09;;;;;;;9.03;6.20;;;;;;;10.87;72.81;98173.13;5092380;28;40730;-77
2021/10/30 14:16:37;;;;;;;9.00;5.50;;;;;;;10.69;72.84;98148.84;5092632;28;43418;-76
2021/10/30 14:19:04;;;;;;;12.47;5.80;;;;;;;10.79;73.06;98168.38;5074110;28;42571;-78
2021/10/30 14:21:33;;;;;;;9.63;6.27;;;;;;;10.74;72.68;98173.19;5091088;28;39677;-77
2021/10/30 14:24:01;;;;;;;9.27;5.63;;;;;;;10.69;73.24;98176.16;5090066;28;42351;-80
2021/10/30 14:26:29;;;;;;;13.30;6.77;;;;;;;10.66;72.96;98183.47;5090774;28;41776;-78
2021/10/30 14:28:57;;;;;;;10.90;6.70;;;;;;;10.64;73.23;98182.75;5088686;28;42892;-77
2021/10/30 14:31:25;;;;;;;12.60;6.80;;;;;;;10.60;73.38;98183.94;5075688;28;39339;-76
2021/10/30 14:33:54;;;;;;;10.10;6.43;;;;;;;10.56;73.51;98177.19;5073858;28;41318;-77
2021/10/30 14:36:22;;;;;;;12.57;7.47;;;;;;;10.52;73.21;98181.84;5073356;28;42549;-77
2021/10/30 14:38:51;;;;;;;10.57;6.80;;;;;;;10.50;73.47;98172.34;5089819;28;41201;-77
2021/10/30 14:41:19;;;;;;;8.47;5.83;;;;;;;10.49;73.42;98173.31;5089532;28;38813;-77
2021/10/30 14:43:48;;;;;;;9.13;4.77;;;;;;;10.46;73.81;98149.69;5090471;28;42713;-78
2021/10/30 14:46:17;;;;;;;8.23;5.07;;;;;;;10.51;74.03;98158.97;5088955;28;43567;-77
2021/10/30 14:48:45;;;;;;;8.73;5.37;;;;;;;10.53;73.56;98153.56;5083051;28;42406;-78
2021/10/30 14:51:13;;;;;;;9.87;5.90;;;;;;;10.56;74.10;98158.66;5090161;28;40817;-78
2021/10/30 14:53:40;;;;;;;7.83;4.60;;;;;;;10.56;74.10;98156.00;5089229;28;41838;-78
2021/10/30 14:56:09;;;;;;;8.77;5.70;;;;;;;10.53;73.95;98154.41;5089836;28;43242;-76
2021/10/30 14:58:36;;;;;;;14.13;7.20;;;;;;;10.52;74.11;98146.59;5089530;28;42069;-77
2021/10/30 15:01:04;;;;;;;10.47;6.20;;;;;;;10.46;74.24;98150.53;5089391;28;40680;-77
2021/10/30 15:03:32;;;;;;;8.50;5.67;;;;;;;10.45;74.58;98132.97;5072727;28;42795;-77
2021/10/30 15:05:59;;;;;;;8.10;5.60;;;;;;;10.47;74.38;98130.22;5088695;28;41775;-79
2021/10/30 15:08:26;;;;;;;12.63;7.53;;;;;;;10.34;74.65;98120.53;5069476;28;42631;-77
2021/10/30 15:10:54;;;;;;;8.50;5.43;;;;;;;10.48;74.53;98135.41;5088876;28;39967;-77
2021/10/30 15:13:23;;;;;;;8.20;5.20;;;;;;;10.49;74.29;98133.59;5089871;28;41407;-77
2021/10/30 15:15:50;;;;;;;8.63;5.50;;;;;;;10.51;74.60;98132.50;5090427;28;43149;-78
2021/10/30 15:18:18;;;;;;;10.73;5.63;;;;;;;10.50;74.85;98146.72;5090336;28;42742;-77
2021/10/30 15:20:45;;;;;;;9.83;5.37;;;;;;;10.50;74.61;98145.88;5088641;28;40006;-77
2021/10/30 15:23:13;;;;;;;9.50;5.40;;;;;;;10.52;74.32;98139.50;5090482;28;41615;-77
2021/10/30 15:25:40;;;;;;;10.93;6.43;;;;;;;10.56;74.31;98140.97;5089668;28;41511;-77
2021/10/30 15:28:08;;;;;;;9.93;5.47;;;;;;;10.57;74.68;98141.81;5088534;28;43719;-79
2021/10/30 15:30:37;;;;;;;9.93;5.83;;;;;;;10.57;74.52;98131.22;5089242;28;40910;-78
2021/10/30 15:33:06;;;;;;;10.30;6.40;;;;;;;10.61;74.44;98135.34;5089587;28;41001;-77
2021/10/30 15:35:35;;;;;;;8.30;5.73;;;;;;;10.53;74.26;98108.56;5089510;28;42666;-78
2021/10/30 15:38:03;;;;;;;11.37;7.30;;;;;;;10.55;74.31;98098.72;5072242;28;40837;-78
2021/10/30 15:40:30;;;;;;;10.03;6.30;;;;;;;10.71;74.48;98120.44;5088193;28;39918;-77
2021/10/30 15:42:59;;;;;;;9.97;6.37;;;;;;;10.74;74.57;98144.06;5089752;28;42671;-78
2021/10/30 15:45:26;;;;;;;9.87;5.27;;;;;;;10.73;74.32;98131.78;5087443;28;43858;-77
2021/10/30 15:47:55;;;;;;;9.30;5.50;;;;;;;10.74;74.72;98133.47;5071784;28;41784;-78
2021/10/30 15:50:23;;;;;;;9.93;6.03;;;;;;;10.75;74.61;98116.63;5089116;28;40014;-77
2021/10/30 15:52:51;;;;;;;8.23;5.90;;;;;;;10.75;74.71;98124.56;5071862;28;42265;-77
2021/10/30 15:55:18;;;;;;;8.77;5.57;;;;;;;10.75;74.90;98127.22;5072004;28;42381;-79
2021/10/30 15:57:46;;;;;;;10.37;5.87;;;;;;;10.74;74.58;98125.53;5072055;28;41494;-80
2021/10/30 16:00:14;;;;;;;10.80;6.60;;;;;;;10.63;75.46;98110.41;5071929;28;39310;-78
2021/10/30 16:02:42;;;;;;;12.27;7.10;;;;;;;10.62;75.07;98115.84;5072422;28;41205;-79
2021/10/30 16:05:11;;;;;;;8.97;5.90;;;;;;;10.67;74.97;98116.31;5088454;28;43783;-80
2021/10/30 16:07:39;;;;;;;10.20;6.53;;;;;;;10.72;75.38;98130.94;5089526;28;42855;-77
2021/10/30 16:10:07;;;;;;;9.17;6.80;;;;;;;10.69;75.44;98144.41;5070787;28;40291;-82
2021/10/30 16:12:36;;;;;;;8.10;5.97;;;;;;;10.72;75.50;98140.69;5072370;28;40875;-80
2021/10/30 16:15:04;;;;;;;9.90;5.97;;;;;;;10.72;75.32;98144.16;5071752;28;43189;-78
2021/10/30 16:17:32;;;;;;;7.57;5.10;;;;;;;10.75;74.99;98143.09;5089014;28;42125;-78
2021/10/30 16:20:00;;;;;;;7.77;4.87;;;;;;;10.77;75.22;98154.41;5088482;28;40452;-81
2021/10/30 16:22:29;;;;;;;9.17;5.50;;;;;;;10.68;75.30;98115.38;5090425;28;41551;-80
2021/10/30 16:24:59;;;;;;;7.60;4.50;;;;;;;10.73;75.23;98129.13;5089147;28;42627;-79
2021/10/30 16:27:29;;;;;;;7.73;5.67;;;;;;;10.71;75.28;98123.94;5072074;28;42960;-83
2021/10/30 16:30:02;;;;;;;8.63;5.80;;;;;;;10.74;75.53;98128.16;5084876;28;40617;-85
2021/10/30 16:32:29;;;;;;;7.37;4.77;;;;;;;10.82;75.29;98144.31;5088558;28;41915;-78
2021/10/30 16:34:57;;;;;;;7.87;5.40;;;;;;;10.77;75.18;98157.06;5088562;28;42776;-80
2021/10/30 16:37:24;;;;;;;7.93;4.80;;;;;;;10.64;75.11;98119.19;5071568;28;42192;-86
2021/10/30 16:39:58;;;;;;;11.43;7.10;;;;;;;10.75;74.95;98145.75;5071035;28;39924;-86
2021/10/30 16:42:26;;;;;;;6.30;4.27;;;;;;;10.85;75.17;98141.44;5088722;28;41455;-80
2021/10/30 16:44:53;;;;;;;8.67;5.10;;;;;;;10.76;75.20;98123.56;5088161;28;42898;-79
2021/10/30 16:47:21;;;;;;;7.37;5.37;;;;;;;10.84;75.57;98153.00;5070912;28;41404;-81
2021/10/30 16:49:52;;;;;;;8.13;5.10;;;;;;;10.86;75.53;98152.91;5088354;28;39109;-79
2021/10/30 16:52:38;;;;;;;7.03;4.83;;;;;;;10.88;75.56;98138.56;5071936;28;41908;-85
2021/10/30 16:55:11;;;;;;;7.87;5.10;;;;;;;10.89;75.45;98144.69;5069782;28;42222;-86
2021/10/30 16:57:38;;;;;;;7.10;5.23;;;;;;;10.87;75.36;98144.84;5088864;28;42635;-81
2021/10/30 17:00:07;;;;;;;6.20;4.53;;;;;;;10.89;75.88;98145.53;5087668;28;40492;-82
2021/10/30 17:02:35;;;;;;;7.63;5.40;;;;;;;10.89;75.97;98148.19;5123025;27;43012;-79
2021/10/30 17:05:03;;;;;;;11.90;6.60;;;;;;;10.53;75.74;98103.28;5087986;28;42598;-79
2021/10/30 17:07:31;;;;;;;9.23;5.90;;;;;;;10.90;75.64;98159.63;5088228;28;43276;-82
2021/10/30 17:09:59;;;;;;;7.47;4.53;;;;;;;10.86;75.89;98148.44;5070529;28;38769;-80
2021/10/30 17:12:28;;;;;;;10.40;6.47;;;;;;;10.93;76.01;98160.25;5088811;28;41790;-84
2021/10/30 17:14:55;;;;;;;9.70;5.60;;;;;;;10.88;75.89;98151.78;5087258;28;42886;-79
2021/10/30 17:17:23;;;;;;;10.47;7.17;;;;;;;10.94;75.88;98155.81;5071453;28;41911;-80
2021/10/30 17:19:54;;;;;;;11.20;6.13;;;;;;;10.87;75.94;98131.59;5071625;28;40477;-85
2021/10/30 17:22:21;;;;;;;10.30;6.03;;;;;;;10.94;75.99;98139.91;5072373;28;40699;-79
2021/10/30 17:24:49;;;;;;;8.80;5.50;;;;;;;10.94;75.78;98138.09;5090697;28;42878;-79
2021/10/30 17:27:18;;;;;;;7.53;5.93;;;;;;;10.95;75.71;98142.44;5091961;28;42312;-80
2021/10/30 17:29:51;;;;;;;6.60;4.80;;;;;;;10.97;76.13;98147.63;5091215;28;40941;-84
2021/10/30 17:32:19;;;;;;;7.97;5.63;;;;;;;10.75;75.85;98113.97;5070508;28;40897;-80
2021/10/30 17:34:46;;;;;;;10.30;6.70;;;;;;;10.97;76.13;98135.22;5091034;28;42904;-80
2021/10/30 17:37:14;;;;;;;7.73;5.27;;;;;;;10.98;76.27;98144.88;5074814;28;41143;-76
2021/10/30 17:39:42;;;;;;;9.20;6.27;;;;;;;10.88;75.99;98112.06;5091645;28;40531;-77
2021/10/30 17:42:10;;;;;;;11.57;6.57;;;;;;;11.00;76.10;98134.97;5090992;28;41866;-81
2021/10/30 17:44:38;;;;;;;10.53;5.53;;;;;;;10.75;75.85;98100.72;5091656;28;43498;-82
2021/10/30 17:47:08;;;;;;;7.10;5.37;;;;;;;11.07;76.15;98141.53;5074193;28;41569;-79
2021/10/30 17:49:35;;;;;;;8.30;5.23;;;;;;;11.08;76.20;98129.97;5092450;28;40515;-80
2021/10/30 17:52:03;;;;;;;10.20;6.07;;;;;;;10.95;76.06;98110.66;5074730;28;40869;-78
2021/10/30 17:54:31;;;;;;;9.63;5.53;;;;;;;11.08;76.36;98140.56;5090701;28;43159;-77
2021/10/30 17:57:01;;;;;;;9.17;5.70;;;;;;;10.98;76.39;98126.31;5091959;28;43179;-79
2021/10/30 17:59:29;;;;;;;8.30;5.20;;;;;;;11.09;76.35;98144.91;5074696;28;39566;-80
2021/10/30 18:01:57;;;;;;;12.93;7.07;;;;;;;11.09;76.75;98147.56;5073656;28;40642;-79
2021/10/30 18:04:26;;;;;;;10.70;6.87;;;;;;;11.07;76.96;98138.88;5074187;28;43715;-79
2021/10/30 18:06:54;;;;;;;8.07;5.67;;;;;;;11.00;76.73;98129.69;5091204;28;42401;-81
2021/10/30 18:09:22;;;;;;;10.03;6.67;;;;;;;11.10;76.70;98146.59;5090294;28;40217;-76
2021/10/30 18:11:50;;;;;;;8.47;6.00;;;;;;;11.02;76.75;98132.22;5090651;28;42764;-81
2021/10/30 18:14:17;;;;;;;10.73;6.00;;;;;;;11.14;76.71;98163.06;5090801;28;43202;-83
2021/10/30 18:16:45;;;;;;;8.93;5.10;;;;;;;11.09;76.46;98160.78;5090406;28;42223;-79
2021/10/30 18:19:13;;;;;;;7.13;4.73;;;;;;;11.01;76.74;98149.91;5091229;28;39872;-80
